sensor_id;sensor_type;location;lat;lon;timestamp;P1;durP1;ratioP1;P2;durP2;ratioP2
4961;SDS011;2496;52.468;13.342;2022-08-11T00:01:45;3.37;;;2.10;;
4961;SDS011;2496;52.468;13.342;2022-08-11T00:04:13;3.10;;;2.43;;
4961;SDS011;2496;52.468;13.342;2022-08-11T00:06:42;5.23;;;2.20;;
4961;SDS011;2496;52.468;13.342;2022-08-11T00:09:11;3.23;;;2.00;;
4961;SDS011;2496;52.468;13.342;2022-08-11T00:11:43;6.40;;;2.47;;
4961;SDS011;2496;52.468;13.342;2022-08-11T00:14:13;5.57;;;2.40;;
4961;SDS011;2496;52.468;13.342;2022-08-11T00:16:51;2.63;;;2.20;;
4961;SDS011;2496;52.468;13.342;2022-08-11T00:19:21;3.17;;;1.83;;
4961;SDS011;2496;52.468;13.342;2022-08-11T00:21:50;7.73;;;1.97;;
4961;SDS011;2496;52.468;13.342;2022-08-11T00:24:18;3.63;;;2.40;;
4961;SDS011;2496;52.468;13.342;2022-08-11T00:26:47;6.07;;;2.50;;
4961;SDS011;2496;52.468;13.342;2022-08-11T00:29:15;4.60;;;2.20;;
4961;SDS011;2496;52.468;13.342;2022-08-11T00:31:44;7.70;;;2.90;;
4961;SDS011;2496;52.468;13.342;2022-08-11T00:34:15;11.57;;;2.70;;
4961;SDS011;2496;52.468;13.342;2022-08-11T00:36:47;6.70;;;2.83;;
4961;SDS011;2496;52.468;13.342;2022-08-11T00:39:18;5.70;;;2.30;;
4961;SDS011;2496;52.468;13.342;2022-08-11T00:41:54;16.50;;;2.80;;
4961;SDS011;2496;52.468;13.342;2022-08-11T00:44:35;2.50;;;2.03;;
4961;SDS011;2496;52.468;13.342;2022-08-11T00:47:17;5.60;;;2.43;;
4961;SDS011;2496;52.468;13.342;2022-08-11T00:50:01;2.73;;;2.10;;
4961;SDS011;2496;52.468;13.342;2022-08-11T00:55:47;3.53;;;2.30;;
4961;SDS011;2496;52.468;13.342;2022-08-11T01:01:56;7.83;;;2.40;;
4961;SDS011;2496;52.468;13.342;2022-08-11T01:04:51;4.87;;;2.50;;
4961;SDS011;2496;52.468;13.342;2022-08-11T01:07:41;5.20;;;2.23;;
4961;SDS011;2496;52.468;13.342;2022-08-11T01:13:30;6.93;;;2.60;;
4961;SDS011;2496;52.468;13.342;2022-08-11T01:16:13;7.73;;;2.40;;
4961;SDS011;2496;52.468;13.342;2022-08-11T01:22:30;5.50;;;2.93;;
4961;SDS011;2496;52.468;13.342;2022-08-11T01:25:34;5.10;;;2.80;;
4961;SDS011;2496;52.468;13.342;2022-08-11T01:31:54;4.20;;;2.33;;
4961;SDS011;2496;52.468;13.342;2022-08-11T01:37:59;6.53;;;2.67;;
4961;SDS011;2496;52.468;13.342;2022-08-11T01:40:54;7.27;;;2.83;;
4961;SDS011;2496;52.468;13.342;2022-08-11T01:47:10;3.20;;;2.33;;
4961;SDS011;2496;52.468;13.342;2022-08-11T01:50:06;5.60;;;2.27;;
4961;SDS011;2496;52.468;13.342;2022-08-11T01:52:45;2.40;;;2.07;;
4961;SDS011;2496;52.468;13.342;2022-08-11T01:55:37;3.20;;;2.30;;
4961;SDS011;2496;52.468;13.342;2022-08-11T01:58:15;4.07;;;2.73;;
4961;SDS011;2496;52.468;13.342;2022-08-11T02:00:52;5.53;;;2.47;;
4961;SDS011;2496;52.468;13.342;2022-08-11T02:03:28;3.07;;;2.53;;
4961;SDS011;2496;52.468;13.342;2022-08-11T02:06:09;3.37;;;3.07;;
4961;SDS011;2496;52.468;13.342;2022-08-11T02:08:58;4.30;;;2.90;;
4961;SDS011;2496;52.468;13.342;2022-08-11T02:11:31;6.70;;;2.70;;
4961;SDS011;2496;52.468;13.342;2022-08-11T02:14:01;7.67;;;2.57;;
4961;SDS011;2496;52.468;13.342;2022-08-11T02:16:48;4.63;;;2.40;;
4961;SDS011;2496;52.468;13.342;2022-08-11T02:19:22;3.27;;;2.57;;
4961;SDS011;2496;52.468;13.342;2022-08-11T02:22:14;5.37;;;2.77;;
4961;SDS011;2496;52.468;13.342;2022-08-11T02:25:05;5.40;;;2.60;;
4961;SDS011;2496;52.468;13.342;2022-08-11T02:27:35;4.43;;;2.93;;
4961;SDS011;2496;52.468;13.342;2022-08-11T02:30:07;4.47;;;2.93;;
4961;SDS011;2496;52.468;13.342;2022-08-11T02:32:40;3.20;;;2.70;;
4961;SDS011;2496;52.468;13.342;2022-08-11T02:38:18;6.20;;;2.80;;
4961;SDS011;2496;52.468;13.342;2022-08-11T02:40:56;8.43;;;3.40;;
4961;SDS011;2496;52.468;13.342;2022-08-11T02:43:38;7.07;;;2.70;;
4961;SDS011;2496;52.468;13.342;2022-08-11T02:46:19;12.80;;;3.60;;
4961;SDS011;2496;52.468;13.342;2022-08-11T02:48:52;7.33;;;2.90;;
4961;SDS011;2496;52.468;13.342;2022-08-11T02:51:45;6.93;;;3.10;;
4961;SDS011;2496;52.468;13.342;2022-08-11T02:54:29;5.13;;;3.20;;
4961;SDS011;2496;52.468;13.342;2022-08-11T02:57:08;6.10;;;3.47;;
4961;SDS011;2496;52.468;13.342;2022-08-11T02:59:43;9.80;;;3.27;;
4961;SDS011;2496;52.468;13.342;2022-08-11T03:02:19;7.33;;;3.37;;
4961;SDS011;2496;52.468;13.342;2022-08-11T03:05:11;8.90;;;3.13;;
4961;SDS011;2496;52.468;13.342;2022-08-11T03:07:49;7.33;;;3.20;;
4961;SDS011;2496;52.468;13.342;2022-08-11T03:13:40;4.13;;;3.27;;
4961;SDS011;2496;52.468;13.342;2022-08-11T03:16:31;7.00;;;2.90;;
4961;SDS011;2496;52.468;13.342;2022-08-11T03:19:15;3.27;;;2.73;;
4961;SDS011;2496;52.468;13.342;2022-08-11T03:21:51;8.77;;;4.50;;
4961;SDS011;2496;52.468;13.342;2022-08-11T03:24:28;5.90;;;3.40;;
4961;SDS011;2496;52.468;13.342;2022-08-11T03:27:03;8.30;;;3.20;;
4961;SDS011;2496;52.468;13.342;2022-08-11T03:29:38;14.40;;;3.50;;
4961;SDS011;2496;52.468;13.342;2022-08-11T03:32:10;11.53;;;3.37;;
4961;SDS011;2496;52.468;13.342;2022-08-11T03:34:47;5.20;;;2.97;;
4961;SDS011;2496;52.468;13.342;2022-08-11T03:37:25;3.90;;;3.07;;
4961;SDS011;2496;52.468;13.342;2022-08-11T03:40:19;10.80;;;2.80;;
4961;SDS011;2496;52.468;13.342;2022-08-11T03:43:37;6.50;;;3.40;;
4961;SDS011;2496;52.468;13.342;2022-08-11T03:46:37;8.13;;;3.40;;
4961;SDS011;2496;52.468;13.342;2022-08-11T03:49:22;6.97;;;3.50;;
4961;SDS011;2496;52.468;13.342;2022-08-11T03:51:59;6.83;;;3.33;;
4961;SDS011;2496;52.468;13.342;2022-08-11T03:54:41;6.60;;;3.87;;
4961;SDS011;2496;52.468;13.342;2022-08-11T03:57:23;6.13;;;3.67;;
4961;SDS011;2496;52.468;13.342;2022-08-11T04:00:10;7.57;;;3.77;;
4961;SDS011;2496;52.468;13.342;2022-08-11T04:03:04;5.87;;;3.40;;
4961;SDS011;2496;52.468;13.342;2022-08-11T04:05:48;4.67;;;3.30;;
4961;SDS011;2496;52.468;13.342;2022-08-11T04:09:01;4.97;;;3.30;;
4961;SDS011;2496;52.468;13.342;2022-08-11T04:11:57;7.50;;;3.63;;
4961;SDS011;2496;52.468;13.342;2022-08-11T04:18:35;5.40;;;3.87;;
4961;SDS011;2496;52.468;13.342;2022-08-11T04:21:39;7.57;;;3.70;;
4961;SDS011;2496;52.468;13.342;2022-08-11T04:30:35;6.00;;;4.03;;
4961;SDS011;2496;52.468;13.342;2022-08-11T04:33:39;9.97;;;3.20;;
4961;SDS011;2496;52.468;13.342;2022-08-11T04:36:26;4.00;;;2.97;;
4961;SDS011;2496;52.468;13.342;2022-08-11T04:39:26;10.70;;;3.67;;
4961;SDS011;2496;52.468;13.342;2022-08-11T04:42:24;7.60;;;3.73;;
4961;SDS011;2496;52.468;13.342;2022-08-11T04:46:00;7.53;;;3.70;;
4961;SDS011;2496;52.468;13.342;2022-08-11T04:48:46;8.37;;;3.60;;
4961;SDS011;2496;52.468;13.342;2022-08-11T04:52:00;8.63;;;4.43;;
4961;SDS011;2496;52.468;13.342;2022-08-11T04:54:57;6.60;;;4.03;;
4961;SDS011;2496;52.468;13.342;2022-08-11T04:57:58;8.40;;;3.33;;
4961;SDS011;2496;52.468;13.342;2022-08-11T05:00:55;10.07;;;4.57;;
4961;SDS011;2496;52.468;13.342;2022-08-11T05:04:06;8.80;;;4.60;;
4961;SDS011;2496;52.468;13.342;2022-08-11T05:06:56;6.13;;;3.50;;
4961;SDS011;2496;52.468;13.342;2022-08-11T05:09:45;6.20;;;3.90;;
4961;SDS011;2496;52.468;13.342;2022-08-11T05:12:30;7.00;;;4.07;;
4961;SDS011;2496;52.468;13.342;2022-08-11T05:15:09;8.30;;;4.20;;
4961;SDS011;2496;52.468;13.342;2022-08-11T05:17:57;5.53;;;3.93;;
4961;SDS011;2496;52.468;13.342;2022-08-11T05:20:49;13.87;;;4.70;;
4961;SDS011;2496;52.468;13.342;2022-08-11T05:23:37;6.37;;;4.23;;
4961;SDS011;2496;52.468;13.342;2022-08-11T05:26:24;5.73;;;4.40;;
4961;SDS011;2496;52.468;13.342;2022-08-11T05:29:25;6.10;;;4.37;;
4961;SDS011;2496;52.468;13.342;2022-08-11T05:32:20;10.90;;;5.40;;
4961;SDS011;2496;52.468;13.342;2022-08-11T05:35:06;13.60;;;5.13;;
4961;SDS011;2496;52.468;13.342;2022-08-11T05:37:40;14.30;;;5.23;;
4961;SDS011;2496;52.468;13.342;2022-08-11T05:40:26;12.53;;;4.90;;
4961;SDS011;2496;52.468;13.342;2022-08-11T05:43:12;10.40;;;4.60;;
4961;SDS011;2496;52.468;13.342;2022-08-11T05:45:58;8.23;;;4.97;;
4961;SDS011;2496;52.468;13.342;2022-08-11T05:48:44;6.57;;;4.80;;
4961;SDS011;2496;52.468;13.342;2022-08-11T05:51:32;8.17;;;4.73;;
4961;SDS011;2496;52.468;13.342;2022-08-11T05:54:19;7.50;;;5.17;;
4961;SDS011;2496;52.468;13.342;2022-08-11T05:57:04;15.17;;;5.63;;
4961;SDS011;2496;52.468;13.342;2022-08-11T05:59:32;7.20;;;4.50;;
4961;SDS011;2496;52.468;13.342;2022-08-11T06:02:00;6.53;;;4.27;;
4961;SDS011;2496;52.468;13.342;2022-08-11T06:04:29;9.00;;;4.77;;
4961;SDS011;2496;52.468;13.342;2022-08-11T06:06:57;8.20;;;4.90;;
4961;SDS011;2496;52.468;13.342;2022-08-11T06:09:29;7.10;;;4.73;;
4961;SDS011;2496;52.468;13.342;2022-08-11T06:11:59;5.03;;;4.53;;
4961;SDS011;2496;52.468;13.342;2022-08-11T06:14:29;5.60;;;4.57;;
4961;SDS011;2496;52.468;13.342;2022-08-11T06:16:58;7.90;;;5.03;;
4961;SDS011;2496;52.468;13.342;2022-08-11T06:19:34;7.07;;;4.50;;
4961;SDS011;2496;52.468;13.342;2022-08-11T06:22:04;19.53;;;5.47;;
4961;SDS011;2496;52.468;13.342;2022-08-11T06:24:35;7.40;;;4.60;;
4961;SDS011;2496;52.468;13.342;2022-08-11T06:27:04;13.17;;;5.10;;
4961;SDS011;2496;52.468;13.342;2022-08-11T06:29:32;8.53;;;4.63;;
4961;SDS011;2496;52.468;13.342;2022-08-11T06:32:05;10.30;;;4.83;;
4961;SDS011;2496;52.468;13.342;2022-08-11T06:34:39;16.10;;;4.80;;
4961;SDS011;2496;52.468;13.342;2022-08-11T06:37:21;8.27;;;5.60;;
4961;SDS011;2496;52.468;13.342;2022-08-11T06:40:00;8.77;;;5.33;;
4961;SDS011;2496;52.468;13.342;2022-08-11T06:45:28;8.97;;;5.20;;
4961;SDS011;2496;52.468;13.342;2022-08-11T06:48:00;9.07;;;4.63;;
4961;SDS011;2496;52.468;13.342;2022-08-11T06:50:30;6.17;;;4.80;;
4961;SDS011;2496;52.468;13.342;2022-08-11T06:53:16;7.00;;;4.97;;
4961;SDS011;2496;52.468;13.342;2022-08-11T06:55:47;11.77;;;5.20;;
4961;SDS011;2496;52.468;13.342;2022-08-11T06:58:34;17.73;;;5.27;;
4961;SDS011;2496;52.468;13.342;2022-08-11T07:01:33;13.43;;;4.60;;
4961;SDS011;2496;52.468;13.342;2022-08-11T07:04:11;11.40;;;5.10;;
4961;SDS011;2496;52.468;13.342;2022-08-11T07:06:53;13.50;;;5.53;;
4961;SDS011;2496;52.468;13.342;2022-08-11T07:09:49;8.97;;;5.00;;
4961;SDS011;2496;52.468;13.342;2022-08-11T07:12:57;11.53;;;4.70;;
4961;SDS011;2496;52.468;13.342;2022-08-11T07:15:43;11.23;;;4.03;;
4961;SDS011;2496;52.468;13.342;2022-08-11T07:18:22;11.73;;;4.80;;
4961;SDS011;2496;52.468;13.342;2022-08-11T07:21:11;8.40;;;4.50;;
4961;SDS011;2496;52.468;13.342;2022-08-11T07:24:00;8.10;;;4.73;;
4961;SDS011;2496;52.468;13.342;2022-08-11T07:26:55;7.00;;;4.23;;
4961;SDS011;2496;52.468;13.342;2022-08-11T07:29:42;9.30;;;4.23;;
4961;SDS011;2496;52.468;13.342;2022-08-11T07:32:13;11.33;;;4.63;;
4961;SDS011;2496;52.468;13.342;2022-08-11T07:34:49;5.83;;;4.27;;
4961;SDS011;2496;52.468;13.342;2022-08-11T07:37:20;8.57;;;3.97;;
4961;SDS011;2496;52.468;13.342;2022-08-11T07:39:50;7.53;;;4.00;;
4961;SDS011;2496;52.468;13.342;2022-08-11T07:42:21;4.20;;;3.80;;
4961;SDS011;2496;52.468;13.342;2022-08-11T07:44:54;9.00;;;4.70;;
4961;SDS011;2496;52.468;13.342;2022-08-11T07:47:45;12.37;;;4.90;;
4961;SDS011;2496;52.468;13.342;2022-08-11T07:50:30;4.27;;;3.87;;
4961;SDS011;2496;52.468;13.342;2022-08-11T07:53:15;12.47;;;7.23;;
4961;SDS011;2496;52.468;13.342;2022-08-11T07:55:44;7.00;;;3.80;;
4961;SDS011;2496;52.468;13.342;2022-08-11T07:58:18;19.40;;;4.63;;
4961;SDS011;2496;52.468;13.342;2022-08-11T08:01:05;4.73;;;3.50;;
4961;SDS011;2496;52.468;13.342;2022-08-11T08:03:50;6.10;;;3.93;;
4961;SDS011;2496;52.468;13.342;2022-08-11T08:06:35;8.83;;;6.03;;
4961;SDS011;2496;52.468;13.342;2022-08-11T08:09:22;6.10;;;3.90;;
4961;SDS011;2496;52.468;13.342;2022-08-11T08:12:07;4.90;;;3.50;;
4961;SDS011;2496;52.468;13.342;2022-08-11T08:14:52;4.80;;;4.13;;
4961;SDS011;2496;52.468;13.342;2022-08-11T08:17:41;12.87;;;4.40;;
4961;SDS011;2496;52.468;13.342;2022-08-11T08:20:22;7.80;;;4.40;;
4961;SDS011;2496;52.468;13.342;2022-08-11T08:22:52;10.00;;;3.67;;
4961;SDS011;2496;52.468;13.342;2022-08-11T08:25:22;12.90;;;4.20;;
4961;SDS011;2496;52.468;13.342;2022-08-11T08:27:50;5.93;;;3.97;;
4961;SDS011;2496;52.468;13.342;2022-08-11T08:30:17;6.10;;;3.90;;
4961;SDS011;2496;52.468;13.342;2022-08-11T08:33:03;10.13;;;4.57;;
4961;SDS011;2496;52.468;13.342;2022-08-11T08:35:31;10.80;;;4.07;;
4961;SDS011;2496;52.468;13.342;2022-08-11T08:38:00;6.93;;;3.73;;
4961;SDS011;2496;52.468;13.342;2022-08-11T08:40:27;5.30;;;3.20;;
4961;SDS011;2496;52.468;13.342;2022-08-11T08:42:55;12.63;;;4.03;;
4961;SDS011;2496;52.468;13.342;2022-08-11T08:45:24;7.23;;;3.77;;
4961;SDS011;2496;52.468;13.342;2022-08-11T08:48:00;6.10;;;3.50;;
4961;SDS011;2496;52.468;13.342;2022-08-11T08:50:33;4.23;;;3.33;;
4961;SDS011;2496;52.468;13.342;2022-08-11T08:53:20;5.17;;;3.57;;
4961;SDS011;2496;52.468;13.342;2022-08-11T08:55:50;4.50;;;3.40;;
4961;SDS011;2496;52.468;13.342;2022-08-11T08:58:20;4.13;;;3.60;;
4961;SDS011;2496;52.468;13.342;2022-08-11T09:00:50;9.53;;;4.00;;
4961;SDS011;2496;52.468;13.342;2022-08-11T09:03:19;4.33;;;3.80;;
4961;SDS011;2496;52.468;13.342;2022-08-11T09:05:48;13.87;;;3.20;;
4961;SDS011;2496;52.468;13.342;2022-08-11T09:08:19;9.23;;;3.37;;
4961;SDS011;2496;52.468;13.342;2022-08-11T09:10:50;11.90;;;3.53;;
4961;SDS011;2496;52.468;13.342;2022-08-11T09:13:31;8.93;;;4.10;;
4961;SDS011;2496;52.468;13.342;2022-08-11T09:15:59;5.73;;;3.50;;
4961;SDS011;2496;52.468;13.342;2022-08-11T09:18:27;6.60;;;3.20;;
4961;SDS011;2496;52.468;13.342;2022-08-11T09:20:56;5.93;;;3.77;;
4961;SDS011;2496;52.468;13.342;2022-08-11T09:23:24;8.73;;;3.53;;
4961;SDS011;2496;52.468;13.342;2022-08-11T09:26:09;10.43;;;3.60;;
4961;SDS011;2496;52.468;13.342;2022-08-11T09:28:54;5.23;;;3.70;;
4961;SDS011;2496;52.468;13.342;2022-08-11T09:31:22;5.17;;;3.10;;
4961;SDS011;2496;52.468;13.342;2022-08-11T09:33:51;7.20;;;3.70;;
4961;SDS011;2496;52.468;13.342;2022-08-11T09:36:21;7.53;;;3.23;;
4961;SDS011;2496;52.468;13.342;2022-08-11T09:39:06;5.00;;;3.00;;
4961;SDS011;2496;52.468;13.342;2022-08-11T09:41:52;3.97;;;2.80;;
4961;SDS011;2496;52.468;13.342;2022-08-11T09:44:20;6.97;;;3.23;;
4961;SDS011;2496;52.468;13.342;2022-08-11T09:47:05;10.20;;;3.30;;
4961;SDS011;2496;52.468;13.342;2022-08-11T09:49:39;5.03;;;3.40;;
4961;SDS011;2496;52.468;13.342;2022-08-11T09:52:09;3.27;;;2.97;;
4961;SDS011;2496;52.468;13.342;2022-08-11T09:54:38;7.80;;;2.83;;
4961;SDS011;2496;52.468;13.342;2022-08-11T09:57:06;12.23;;;3.10;;
4961;SDS011;2496;52.468;13.342;2022-08-11T09:59:51;11.20;;;3.47;;
4961;SDS011;2496;52.468;13.342;2022-08-11T10:02:18;6.23;;;3.50;;
4961;SDS011;2496;52.468;13.342;2022-08-11T10:04:51;7.90;;;3.90;;
4961;SDS011;2496;52.468;13.342;2022-08-11T10:07:45;4.20;;;3.63;;
4961;SDS011;2496;52.468;13.342;2022-08-11T10:10:14;3.30;;;3.00;;
4961;SDS011;2496;52.468;13.342;2022-08-11T10:12:45;6.20;;;3.27;;
4961;SDS011;2496;52.468;13.342;2022-08-11T10:15:15;4.03;;;3.47;;
4961;SDS011;2496;52.468;13.342;2022-08-11T10:17:59;5.70;;;3.23;;
4961;SDS011;2496;52.468;13.342;2022-08-11T10:20:48;7.17;;;3.37;;
4961;SDS011;2496;52.468;13.342;2022-08-11T10:23:19;8.50;;;3.53;;
4961;SDS011;2496;52.468;13.342;2022-08-11T10:26:06;9.87;;;2.63;;
4961;SDS011;2496;52.468;13.342;2022-08-11T10:29:03;6.27;;;3.37;;
4961;SDS011;2496;52.468;13.342;2022-08-11T10:31:52;6.23;;;2.80;;
4961;SDS011;2496;52.468;13.342;2022-08-11T10:34:37;10.00;;;3.27;;
4961;SDS011;2496;52.468;13.342;2022-08-11T10:37:05;8.60;;;3.20;;
4961;SDS011;2496;52.468;13.342;2022-08-11T10:39:38;4.30;;;3.00;;
4961;SDS011;2496;52.468;13.342;2022-08-11T10:42:06;6.93;;;3.67;;
4961;SDS011;2496;52.468;13.342;2022-08-11T10:44:52;5.43;;;3.50;;
4961;SDS011;2496;52.468;13.342;2022-08-11T10:47:22;5.60;;;2.87;;
4961;SDS011;2496;52.468;13.342;2022-08-11T10:50:02;8.50;;;3.57;;
4961;SDS011;2496;52.468;13.342;2022-08-11T10:52:52;8.53;;;3.20;;
4961;SDS011;2496;52.468;13.342;2022-08-11T10:55:41;7.97;;;4.10;;
4961;SDS011;2496;52.468;13.342;2022-08-11T10:58:27;6.40;;;3.20;;
4961;SDS011;2496;52.468;13.342;2022-08-11T11:01:12;4.53;;;2.93;;
4961;SDS011;2496;52.468;13.342;2022-08-11T11:03:40;9.60;;;3.30;;
4961;SDS011;2496;52.468;13.342;2022-08-11T11:06:11;7.77;;;4.50;;
4961;SDS011;2496;52.468;13.342;2022-08-11T11:08:50;5.93;;;2.90;;
4961;SDS011;2496;52.468;13.342;2022-08-11T11:11:23;6.13;;;3.90;;
4961;SDS011;2496;52.468;13.342;2022-08-11T11:14:14;4.50;;;4.10;;
4961;SDS011;2496;52.468;13.342;2022-08-11T11:17:01;7.60;;;3.57;;
4961;SDS011;2496;52.468;13.342;2022-08-11T11:19:52;3.70;;;2.93;;
4961;SDS011;2496;52.468;13.342;2022-08-11T11:22:24;3.23;;;2.93;;
4961;SDS011;2496;52.468;13.342;2022-08-11T11:25:11;9.30;;;3.97;;
4961;SDS011;2496;52.468;13.342;2022-08-11T11:28:04;6.80;;;4.03;;
4961;SDS011;2496;52.468;13.342;2022-08-11T11:30:41;3.77;;;3.40;;
4961;SDS011;2496;52.468;13.342;2022-08-11T11:33:21;3.40;;;2.63;;
4961;SDS011;2496;52.468;13.342;2022-08-11T11:36:00;10.97;;;8.30;;
4961;SDS011;2496;52.468;13.342;2022-08-11T11:38:39;7.40;;;4.10;;
4961;SDS011;2496;52.468;13.342;2022-08-11T11:41:07;4.17;;;3.40;;
4961;SDS011;2496;52.468;13.342;2022-08-11T11:43:58;7.37;;;3.47;;
4961;SDS011;2496;52.468;13.342;2022-08-11T11:46:25;4.43;;;3.67;;
4961;SDS011;2496;52.468;13.342;2022-08-11T11:48:54;4.43;;;3.57;;
4961;SDS011;2496;52.468;13.342;2022-08-11T11:51:24;4.50;;;3.30;;
4961;SDS011;2496;52.468;13.342;2022-08-11T11:53:52;18.53;;;4.57;;
4961;SDS011;2496;52.468;13.342;2022-08-11T11:56:21;3.37;;;3.07;;
4961;SDS011;2496;52.468;13.342;2022-08-11T11:58:49;5.30;;;4.20;;
4961;SDS011;2496;52.468;13.342;2022-08-11T12:01:38;7.17;;;3.83;;
4961;SDS011;2496;52.468;13.342;2022-08-11T12:04:07;6.87;;;3.73;;
4961;SDS011;2496;52.468;13.342;2022-08-11T12:06:38;6.20;;;3.30;;
4961;SDS011;2496;52.468;13.342;2022-08-11T12:09:07;5.63;;;3.43;;
4961;SDS011;2496;52.468;13.342;2022-08-11T12:11:38;5.03;;;3.90;;
4961;SDS011;2496;52.468;13.342;2022-08-11T12:14:23;4.43;;;3.43;;
4961;SDS011;2496;52.468;13.342;2022-08-11T12:16:54;6.13;;;3.40;;
4961;SDS011;2496;52.468;13.342;2022-08-11T12:19:22;8.27;;;3.80;;
4961;SDS011;2496;52.468;13.342;2022-08-11T12:21:53;4.50;;;4.00;;
4961;SDS011;2496;52.468;13.342;2022-08-11T12:24:39;4.93;;;3.20;;
4961;SDS011;2496;52.468;13.342;2022-08-11T12:27:24;7.00;;;3.80;;
4961;SDS011;2496;52.468;13.342;2022-08-11T12:29:53;3.90;;;3.50;;
4961;SDS011;2496;52.468;13.342;2022-08-11T12:32:24;3.13;;;2.83;;
4961;SDS011;2496;52.468;13.342;2022-08-11T12:34:54;5.73;;;3.30;;
4961;SDS011;2496;52.468;13.342;2022-08-11T12:37:22;9.23;;;3.60;;
4961;SDS011;2496;52.468;13.342;2022-08-11T12:39:57;11.13;;;4.63;;
4961;SDS011;2496;52.468;13.342;2022-08-11T12:42:44;5.63;;;3.30;;
4961;SDS011;2496;52.468;13.342;2022-08-11T12:45:30;5.63;;;3.70;;
4961;SDS011;2496;52.468;13.342;2022-08-11T12:48:03;4.23;;;3.70;;
4961;SDS011;2496;52.468;13.342;2022-08-11T12:50:51;7.97;;;3.40;;
4961;SDS011;2496;52.468;13.342;2022-08-11T12:53:41;7.60;;;3.60;;
4961;SDS011;2496;52.468;13.342;2022-08-11T12:56:11;6.17;;;3.90;;
4961;SDS011;2496;52.468;13.342;2022-08-11T12:58:57;4.77;;;3.20;;
4961;SDS011;2496;52.468;13.342;2022-08-11T13:01:43;6.00;;;3.60;;
4961;SDS011;2496;52.468;13.342;2022-08-11T13:04:29;6.20;;;3.23;;
4961;SDS011;2496;52.468;13.342;2022-08-11T13:07:14;12.20;;;3.17;;
4961;SDS011;2496;52.468;13.342;2022-08-11T13:09:43;5.20;;;3.30;;
4961;SDS011;2496;52.468;13.342;2022-08-11T13:12:11;4.83;;;3.57;;
4961;SDS011;2496;52.468;13.342;2022-08-11T13:14:56;7.63;;;3.10;;
4961;SDS011;2496;52.468;13.342;2022-08-11T13:17:25;7.73;;;3.03;;
4961;SDS011;2496;52.468;13.342;2022-08-11T13:19:55;4.33;;;3.40;;
4961;SDS011;2496;52.468;13.342;2022-08-11T13:22:23;6.00;;;3.17;;
4961;SDS011;2496;52.468;13.342;2022-08-11T13:24:51;4.77;;;3.40;;
4961;SDS011;2496;52.468;13.342;2022-08-11T13:27:21;4.10;;;2.80;;
4961;SDS011;2496;52.468;13.342;2022-08-11T13:29:49;8.60;;;3.60;;
4961;SDS011;2496;52.468;13.342;2022-08-11T13:32:37;7.83;;;3.40;;
4961;SDS011;2496;52.468;13.342;2022-08-11T13:35:06;4.00;;;2.83;;
4961;SDS011;2496;52.468;13.342;2022-08-11T13:37:34;8.33;;;2.87;;
4961;SDS011;2496;52.468;13.342;2022-08-11T13:40:01;3.97;;;2.67;;
4961;SDS011;2496;52.468;13.342;2022-08-11T13:42:29;6.80;;;2.93;;
4961;SDS011;2496;52.468;13.342;2022-08-11T13:44:57;8.80;;;3.80;;
4961;SDS011;2496;52.468;13.342;2022-08-11T13:47:25;3.60;;;2.90;;
4961;SDS011;2496;52.468;13.342;2022-08-11T13:49:52;4.93;;;2.60;;
4961;SDS011;2496;52.468;13.342;2022-08-11T13:52:22;4.30;;;3.00;;
4961;SDS011;2496;52.468;13.342;2022-08-11T13:54:51;5.50;;;3.00;;
4961;SDS011;2496;52.468;13.342;2022-08-11T13:57:18;7.20;;;2.90;;
4961;SDS011;2496;52.468;13.342;2022-08-11T13:59:50;6.67;;;2.57;;
4961;SDS011;2496;52.468;13.342;2022-08-11T14:02:20;8.13;;;3.20;;
4961;SDS011;2496;52.468;13.342;2022-08-11T14:04:53;5.07;;;3.13;;
4961;SDS011;2496;52.468;13.342;2022-08-11T14:07:24;3.80;;;3.13;;
4961;SDS011;2496;52.468;13.342;2022-08-11T14:09:58;4.03;;;3.17;;
4961;SDS011;2496;52.468;13.342;2022-08-11T14:12:26;6.30;;;3.30;;
4961;SDS011;2496;52.468;13.342;2022-08-11T14:15:15;4.67;;;2.83;;
4961;SDS011;2496;52.468;13.342;2022-08-11T14:17:46;4.30;;;2.50;;
4961;SDS011;2496;52.468;13.342;2022-08-11T14:20:27;4.00;;;2.60;;
4961;SDS011;2496;52.468;13.342;2022-08-11T14:23:19;5.80;;;2.90;;
4961;SDS011;2496;52.468;13.342;2022-08-11T14:25:51;11.03;;;3.30;;
4961;SDS011;2496;52.468;13.342;2022-08-11T14:28:36;4.07;;;2.80;;
4961;SDS011;2496;52.468;13.342;2022-08-11T14:31:03;5.70;;;3.00;;
4961;SDS011;2496;52.468;13.342;2022-08-11T14:33:33;9.03;;;3.33;;
4961;SDS011;2496;52.468;13.342;2022-08-11T14:36:01;4.23;;;2.80;;
4961;SDS011;2496;52.468;13.342;2022-08-11T14:38:32;6.63;;;3.03;;
4961;SDS011;2496;52.468;13.342;2022-08-11T14:40:59;9.30;;;2.80;;
4961;SDS011;2496;52.468;13.342;2022-08-11T14:43:44;8.23;;;2.33;;
4961;SDS011;2496;52.468;13.342;2022-08-11T14:46:29;2.77;;;2.07;;
4961;SDS011;2496;52.468;13.342;2022-08-11T14:49:15;5.80;;;3.10;;
4961;SDS011;2496;52.468;13.342;2022-08-11T14:51:43;5.03;;;2.17;;
4961;SDS011;2496;52.468;13.342;2022-08-11T14:54:13;3.53;;;2.50;;
4961;SDS011;2496;52.468;13.342;2022-08-11T14:56:58;6.50;;;2.40;;
4961;SDS011;2496;52.468;13.342;2022-08-11T14:59:27;9.30;;;2.30;;
4961;SDS011;2496;52.468;13.342;2022-08-11T15:01:54;5.73;;;2.40;;
4961;SDS011;2496;52.468;13.342;2022-08-11T15:04:38;5.13;;;2.30;;
4961;SDS011;2496;52.468;13.342;2022-08-11T15:07:05;4.17;;;2.60;;
4961;SDS011;2496;52.468;13.342;2022-08-11T15:09:35;5.90;;;2.53;;
4961;SDS011;2496;52.468;13.342;2022-08-11T15:12:04;7.93;;;2.80;;
4961;SDS011;2496;52.468;13.342;2022-08-11T15:14:40;4.33;;;2.67;;
4961;SDS011;2496;52.468;13.342;2022-08-11T15:17:28;5.97;;;3.37;;
4961;SDS011;2496;52.468;13.342;2022-08-11T15:19:57;11.90;;;2.37;;
4961;SDS011;2496;52.468;13.342;2022-08-11T15:22:44;4.23;;;2.60;;
4961;SDS011;2496;52.468;13.342;2022-08-11T15:25:30;11.20;;;2.87;;
4961;SDS011;2496;52.468;13.342;2022-08-11T15:27:59;3.27;;;2.10;;
4961;SDS011;2496;52.468;13.342;2022-08-11T15:30:45;6.30;;;2.00;;
4961;SDS011;2496;52.468;13.342;2022-08-11T15:33:34;4.80;;;2.30;;
4961;SDS011;2496;52.468;13.342;2022-08-11T15:36:21;2.70;;;2.17;;
4961;SDS011;2496;52.468;13.342;2022-08-11T15:39:07;12.13;;;2.27;;
4961;SDS011;2496;52.468;13.342;2022-08-11T15:41:44;3.97;;;2.07;;
4961;SDS011;2496;52.468;13.342;2022-08-11T15:44:33;3.57;;;2.13;;
4961;SDS011;2496;52.468;13.342;2022-08-11T15:47:25;5.73;;;2.13;;
4961;SDS011;2496;52.468;13.342;2022-08-11T15:49:58;6.20;;;2.30;;
4961;SDS011;2496;52.468;13.342;2022-08-11T15:52:30;3.87;;;2.43;;
4961;SDS011;2496;52.468;13.342;2022-08-11T15:55:03;7.73;;;2.00;;
4961;SDS011;2496;52.468;13.342;2022-08-11T15:57:34;6.47;;;2.00;;
4961;SDS011;2496;52.468;13.342;2022-08-11T16:00:20;3.77;;;1.77;;
4961;SDS011;2496;52.468;13.342;2022-08-11T16:03:04;5.07;;;2.47;;
4961;SDS011;2496;52.468;13.342;2022-08-11T16:05:50;6.13;;;2.10;;
4961;SDS011;2496;52.468;13.342;2022-08-11T16:08:18;4.73;;;2.10;;
4961;SDS011;2496;52.468;13.342;2022-08-11T16:10:47;4.70;;;2.43;;
4961;SDS011;2496;52.468;13.342;2022-08-11T16:13:16;3.67;;;1.90;;
4961;SDS011;2496;52.468;13.342;2022-08-11T16:16:16;5.13;;;2.30;;
4961;SDS011;2496;52.468;13.342;2022-08-11T16:18:45;3.10;;;2.30;;
4961;SDS011;2496;52.468;13.342;2022-08-11T16:21:18;17.23;;;2.60;;
4961;SDS011;2496;52.468;13.342;2022-08-11T16:23:49;6.47;;;2.13;;
4961;SDS011;2496;52.468;13.342;2022-08-11T16:26:20;3.97;;;2.20;;
4961;SDS011;2496;52.468;13.342;2022-08-11T16:28:51;4.43;;;2.20;;
4961;SDS011;2496;52.468;13.342;2022-08-11T16:31:20;3.13;;;1.70;;
4961;SDS011;2496;52.468;13.342;2022-08-11T16:33:48;2.77;;;2.00;;
4961;SDS011;2496;52.468;13.342;2022-08-11T16:36:18;3.87;;;1.97;;
4961;SDS011;2496;52.468;13.342;2022-08-11T16:39:04;2.40;;;1.90;;
4961;SDS011;2496;52.468;13.342;2022-08-11T16:41:33;4.27;;;2.10;;
4961;SDS011;2496;52.468;13.342;2022-08-11T16:44:21;4.23;;;1.90;;
4961;SDS011;2496;52.468;13.342;2022-08-11T16:47:07;3.00;;;1.60;;
4961;SDS011;2496;52.468;13.342;2022-08-11T16:49:37;3.90;;;1.83;;
4961;SDS011;2496;52.468;13.342;2022-08-11T16:52:10;6.63;;;2.27;;
4961;SDS011;2496;52.468;13.342;2022-08-11T16:54:39;5.70;;;2.20;;